WetterOnline ( https://www.wetteronline.de )

Wetter aktuell Niederfell

Aktuelles Wetter: Andernach (75m)

6-stündlich | Neueste Meldungen
Ortszeit Temperatur Wetter
Di, 17.09. 8:00 14.1° C bedeckt
Di, 17.09. 2:00 14.6° C bedeckt
Mo, 16.09. 20:00 17.5° C leichter Regen
Mo, 16.09. 14:00 20.7° C bedeckt
Mo, 16.09. 8:00 11.6° C bedeckt
Mo, 16.09. 2:00 11.3° C bedeckt
So, 15.09. 20:00 20.7° C wolkenlos
So, 15.09. 14:00 23.6° C -
Ortszeit Temperatur Wetter
Di, 17.09. 8:00 14.1° C bedeckt
Di, 17.09. 7:50 14.1° C bedeckt
Di, 17.09. 7:40 14.0° C bedeckt
Di, 17.09. 7:30 13.9° C bedeckt
Di, 17.09. 7:20 13.9° C bedeckt
Di, 17.09. 7:10 13.9° C bedeckt
Di, 17.09. 7:00 14.0° C bedeckt
Di, 17.09. 6:30 14.1° C bedeckt
Di, 17.09. 6:00 14.1° C bedeckt
Di, 17.09. 5:30 14.1° C bewölkt
Di, 17.09. 5:00 14.0° C Sprühregen
Ortszeit Relative Feuchte Sichtweite
Di, 17.09. 8:00 81% 20 km
Di, 17.09. 2:00 87% 7 km
Mo, 16.09. 20:00 79% 20 km
Mo, 16.09. 14:00 57% 35 km
Mo, 16.09. 8:00 86% 35 km
Mo, 16.09. 2:00 82% 50 km
So, 15.09. 20:00 43% 55 km
So, 15.09. 14:00 44% 50 km
Ortszeit Relative Feuchte Sichtweite
Di, 17.09. 8:00 81% 20 km
Di, 17.09. 7:50 81% -
Di, 17.09. 7:40 85% -
Di, 17.09. 7:30 87% 17 km
Di, 17.09. 7:20 87% -
Di, 17.09. 7:10 85% -
Di, 17.09. 7:00 85% 16 km
Di, 17.09. 6:30 85% 16 km
Di, 17.09. 6:00 87% 13 km
Di, 17.09. 5:30 88% 11 km
Di, 17.09. 5:00 88% 10 km
Ortszeit Niederschlagsmenge Niederschlagsart
Di, 17.09. 8:00 0.2 l/m2 in 12 Std. Regen
Di, 17.09. 2:00 0.2 l/m2 in 6 Std. Regen
Mo, 16.09. 20:00 0.1 l/m2 in 12 Std. Regen
Mo, 16.09. 14:00 0.0 l/m2 in 6 Std. -
Mo, 16.09. 8:00 0.0 l/m2 in 12 Std. -
Mo, 16.09. 2:00 0.0 l/m2 in 6 Std. -
So, 15.09. 20:00 0.0 l/m2 in 12 Std. -
So, 15.09. 14:00 0.0 l/m2 in 6 Std. -
Ortszeit Niederschlagsmenge Niederschlagsart
Di, 17.09. 8:00 0.0 l/m2 in 1 Std. Regen
Di, 17.09. 7:50 keine Meldung -
Di, 17.09. 7:40 keine Meldung -
Di, 17.09. 7:30 0.0 l/m2 in 1 Std. -
Di, 17.09. 7:20 keine Meldung -
Di, 17.09. 7:10 keine Meldung -
Di, 17.09. 7:00 0.0 l/m2 in 1 Std. -
Di, 17.09. 6:30 0.0 l/m2 in 1 Std. -
Di, 17.09. 6:00 0.1 l/m2 in 1 Std. Regen
Di, 17.09. 5:30 0.1 l/m2 in 1 Std. Schneeregen
Di, 17.09. 5:00 0.1 l/m2 in 1 Std. Regen
Ortszeit Stärke Spitze Richtung
km/h Bft. km/h Grad Sektor
Di, 17.09. 8:00 9 2 17 330° NW
Di, 17.09. 2:00 7 2 22 310° NW
Mo, 16.09. 20:00 14 3 29 320° NW
Mo, 16.09. 14:00 4 1 11 130° SO
Mo, 16.09. 8:00 4 1 11 210° SW
Mo, 16.09. 2:00 4 1 11 80° O
So, 15.09. 20:00 4 1 22 30° NO
So, 15.09. 14:00 9 2 17 340° N
Ortszeit Stärke Spitze Richtung
km/h Bft. km/h Grad Sektor
Di, 17.09. 8:00 9 2 17 330° NW
Di, 17.09. 7:50 9 2 - 330° NW
Di, 17.09. 7:40 7 2 - 330° NW
Di, 17.09. 7:30 4 1 11 310° NW
Di, 17.09. 7:20 4 1 - 310° NW
Di, 17.09. 7:10 4 1 - 300° NW
Di, 17.09. 7:00 7 2 14 320° NW
Di, 17.09. 6:30 7 2 14 320° NW
Di, 17.09. 6:00 7 2 11 320° NW
Di, 17.09. 5:30 6 1 9 310° NW
Di, 17.09. 5:00 7 2 14 310° NW
Ortszeit Untergrenze Bedeckung Gattung
total tief tief mittel hoch
Di, 17.09. 8:00 360 m 8/8 8/8 - - -
Di, 17.09. 2:00 270 m 8/8 8/8 - - -
Mo, 16.09. 20:00 1380 m 7/8 7/8 - - -
Mo, 16.09. 14:00 3300 m 8/8 8/8 - - -
Mo, 16.09. 8:00 4200 m 8/8 8/8 - - -
Mo, 16.09. 2:00 6900 m 8/8 8/8 - - -
So, 15.09. 20:00 - 0/8 0/8 - - -
So, 15.09. 14:00 - - - - - -
Ortszeit Bedeckungsgrad in Achtel und Wolkenuntergrenze
Di, 17.09. 8:00 1(360m) 5(810m) 8(1170m)
Di, 17.09. 7:50 1(360m) 5(810m) 8(1170m)
Di, 17.09. 7:40 1(360m) 6(1050m) 8(1260m)
Di, 17.09. 7:30 1(330m) 6(1080m) 8(1260m)
Di, 17.09. 7:20 1(330m) 6(1080m) 8(1260m)
Di, 17.09. 7:10 2(360m) 5(690m) 8(1290m)
Di, 17.09. 7:00 2(420m) 8(1260m) 8(1260m)
Di, 17.09. 6:30 2(600m) 8(1200m)
Di, 17.09. 6:00 1(390m) 4(630m) 8(1170m)
Di, 17.09. 5:30 1(360m) 4(630m) 7(1200m)
Di, 17.09. 5:00 7(750m) 8(900m)
Ortszeit Luftdruck NN (hPa) Tendenz (hPa in 3 Std.)
Di, 17.09. 8:00 1021 + 0,6
Di, 17.09. 2:00 1021 + 0,1
Mo, 16.09. 20:00 1019 + 0,9
Mo, 16.09. 14:00 1019 - 1,7
Mo, 16.09. 8:00 1021 - 0,6
Mo, 16.09. 2:00 1022 0,0
So, 15.09. 20:00 1021 - 0,1
So, 15.09. 14:00 1023 - 1,6
Ortszeit Luftdruck NN (hPa) Tendenz (hPa in 3 Std.)
Di, 17.09. 8:00 1021 + 0,6
Di, 17.09. 7:50 1021 keine Meldung
Di, 17.09. 7:40 1021 keine Meldung
Di, 17.09. 7:30 1021 + 0,2
Di, 17.09. 7:20 1021 keine Meldung
Di, 17.09. 7:10 1021 keine Meldung
Di, 17.09. 7:00 1020 - 0,1
Di, 17.09. 6:30 1020 - 0,1
Di, 17.09. 6:00 1020 - 0,3
Di, 17.09. 5:30 1020 - 0,4
Di, 17.09. 5:00 1020 - 0,3
Ortszeit Schneehöhe (cm)
Di, 17.09. 8:00 -
Di, 17.09. 2:00 -
Mo, 16.09. 20:00 -
Mo, 16.09. 14:00 -
Mo, 16.09. 8:00 -
Mo, 16.09. 2:00 -
So, 15.09. 20:00 -
So, 15.09. 14:00 -
Ortszeit Schneehöhe (cm)
Di, 17.09. 8:00 -
Di, 17.09. 7:50 -
Di, 17.09. 7:40 -
Di, 17.09. 7:30 -
Di, 17.09. 7:20 -
Di, 17.09. 7:10 -
Di, 17.09. 7:00 -
Di, 17.09. 6:30 -
Di, 17.09. 6:00 -
Di, 17.09. 5:30 -
Di, 17.09. 5:00 -
Link zu dieser Seite / Seite empfehlen

Das Wetter in ...